Time;durP1;ratioP1;P1;durP2;ratioP2;P2;SDS_P1;SDS_P2;PMS_P1;PMS_P2;Temp;Humidity;BMP_temperature;BMP_pressure;BME280_temperature;BME280_humidity;BME280_pressure;Samples;Min_cycle;Max_cycle;Signal;HPM_P1;HPM_P2
2023/03/19 00:00:10;;;;;;;2.58;2.00;;;;;;;9.94;100.00;100982.13;5068389;28;20039;-84
2023/03/19 00:02:36;;;;;;;4.68;1.83;;;;;;;9.89;100.00;100981.63;5067409;28;20032;-84
2023/03/19 00:05:02;;;;;;;2.92;2.00;;;;;;;9.89;100.00;100976.34;5066502;28;20360;-84
2023/03/19 00:07:28;;;;;;;2.70;1.90;;;;;;;9.90;100.00;100979.81;5064764;28;20040;-84
2023/03/19 00:09:53;;;;;;;6.80;2.00;;;;;;;9.89;100.00;100973.72;5048379;28;20060;-84
2023/03/19 00:12:19;;;;;;;3.40;1.90;;;;;;;9.92;100.00;100976.16;5063092;28;20048;-83
2023/03/19 00:14:45;;;;;;;3.22;2.00;;;;;;;9.91;100.00;100976.25;5067574;28;20036;-84
2023/03/19 00:17:11;;;;;;;4.32;2.03;;;;;;;9.92;100.00;100983.19;5067926;28;20017;-84
2023/03/19 00:19:37;;;;;;;2.67;1.90;;;;;;;9.89;100.00;100984.25;5066999;28;21924;-84
2023/03/19 00:22:02;;;;;;;2.67;1.73;;;;;;;9.87;100.00;100991.41;5067225;28;20040;-85
2023/03/19 00:24:28;;;;;;;3.05;2.20;;;;;;;9.88;100.00;100990.44;5066403;28;20078;-84
2023/03/19 00:26:54;;;;;;;3.75;2.10;;;;;;;9.88;100.00;100987.81;5066618;28;20397;-85
2023/03/19 00:29:19;;;;;;;4.35;2.47;;;;;;;9.86;100.00;100994.97;5068580;28;20029;-85
2023/03/19 00:31:45;;;;;;;3.88;2.20;;;;;;;9.86;100.00;100989.72;5068457;28;20028;-85
2023/03/19 00:34:17;;;;;;;2.50;2.30;;;;;;;9.82;100.00;100995.28;5068165;28;20408;-84
2023/03/19 00:36:42;;;;;;;3.63;2.20;;;;;;;9.81;100.00;100991.81;5069252;28;20029;-84
2023/03/19 00:39:07;;;;;;;3.00;2.28;;;;;;;9.83;100.00;100989.09;5067507;28;20099;-84
2023/03/19 00:41:33;;;;;;;4.60;2.50;;;;;;;9.83;100.00;100989.94;5060209;28;20116;-84
2023/03/19 00:43:59;;;;;;;3.42;2.50;;;;;;;9.80;100.00;100989.28;5052627;28;20017;-84
2023/03/19 00:46:25;;;;;;;3.97;2.72;;;;;;;9.81;100.00;100991.81;5068297;28;20481;-84
2023/03/19 00:48:54;;;;;;;3.63;2.30;;;;;;;9.80;100.00;100998.03;5069637;28;20086;-84
2023/03/19 00:51:21;;;;;;;4.53;2.70;;;;;;;9.77;100.00;100998.22;5068812;28;20036;-84
2023/03/19 00:53:46;;;;;;;5.00;2.70;;;;;;;9.76;100.00;100999.19;5067919;28;20031;-85
2023/03/19 00:56:14;;;;;;;4.03;2.88;;;;;;;9.76;100.00;100995.72;5068359;28;20052;-85
2023/03/19 00:58:42;;;;;;;4.60;2.88;;;;;;;9.72;100.00;100992.44;5068404;28;20031;-85
2023/03/19 01:01:09;;;;;;;3.92;3.15;;;;;;;9.74;100.00;100998.44;5060452;28;20385;-85
2023/03/19 01:03:35;;;;;;;5.25;3.40;;;;;;;9.70;100.00;100989.94;5050325;28;20043;-85
2023/03/19 01:06:01;;;;;;;5.10;3.20;;;;;;;9.70;100.00;101003.06;5070729;28;20036;-84
2023/03/19 01:08:26;;;;;;;6.45;3.25;;;;;;;9.67;100.00;100998.03;5069047;28;20027;-85
2023/03/19 01:10:52;;;;;;;5.00;3.50;;;;;;;9.68;100.00;100988.34;5069962;28;20134;-84
2023/03/19 01:13:17;;;;;;;5.82;3.63;;;;;;;9.65;100.00;101001.69;5071168;28;20549;-85
2023/03/19 01:15:43;;;;;;;4.90;3.30;;;;;;;9.67;100.00;100998.03;5048757;28;20017;-85
2023/03/19 01:18:10;;;;;;;4.63;3.55;;;;;;;9.66;100.00;101006.84;5033625;28;20036;-85
2023/03/19 01:20:38;;;;;;;4.72;3.42;;;;;;;9.67;100.00;101005.06;5033029;28;20090;-85
2023/03/19 01:23:04;;;;;;;4.55;3.30;;;;;;;9.69;100.00;101003.19;5049895;28;20017;-85
2023/03/19 01:25:29;;;;;;;4.55;3.63;;;;;;;9.67;100.00;101005.91;5054949;28;20021;-85
2023/03/19 01:27:55;;;;;;;4.90;3.60;;;;;;;9.67;100.00;101000.66;5071462;28;20032;-86
2023/03/19 01:30:21;;;;;;;4.53;3.70;;;;;;;9.69;100.00;101004.00;5071259;28;20048;-86
2023/03/19 01:32:48;;;;;;;5.05;3.70;;;;;;;9.69;100.00;100997.91;5049671;28;20020;-85
2023/03/19 01:35:13;;;;;;;4.68;3.55;;;;;;;9.67;100.00;101005.06;5051184;28;20113;-85
2023/03/19 01:37:40;;;;;;;6.53;3.40;;;;;;;9.67;100.00;101000.66;5051006;28;20108;-85
2023/03/19 01:40:07;;;;;;;4.47;3.53;;;;;;;9.67;100.00;101000.66;5059877;28;20033;-85
2023/03/19 01:42:33;;;;;;;4.82;3.63;;;;;;;9.68;100.00;100996.25;5052947;28;20035;-85
2023/03/19 01:45:01;;;;;;;4.88;3.70;;;;;;;9.68;100.00;100993.59;5071332;28;20024;-84
2023/03/19 01:47:38;;;;;;;6.22;3.78;;;;;;;9.67;100.00;100994.56;5071129;28;20031;-84
2023/03/19 01:50:04;;;;;;;4.22;3.40;;;;;;;9.69;100.00;100997.91;5064685;28;20086;-85
2023/03/19 01:52:32;;;;;;;4.40;3.53;;;;;;;9.66;100.00;100998.13;5055785;28;20167;-84
2023/03/19 01:55:01;;;;;;;7.05;4.20;;;;;;;9.66;100.00;101003.38;5070551;28;20083;-84
2023/03/19 01:57:28;;;;;;;5.05;3.72;;;;;;;9.67;100.00;100999.81;5053126;28;20392;-84
2023/03/19 01:59:56;;;;;;;5.88;3.80;;;;;;;9.68;100.00;101001.50;5070662;28;20263;-84
2023/03/19 02:02:30;;;;;;;5.50;4.00;;;;;;;9.69;100.00;100997.91;5070545;28;20477;-83
2023/03/19 02:05:02;;;;;;;4.65;3.97;;;;;;;9.68;100.00;101001.50;5054936;28;20028;-85
2023/03/19 02:07:30;;;;;;;4.68;4.18;;;;;;;9.68;100.00;100997.06;5063887;28;20094;-84
2023/03/19 02:09:57;;;;;;;5.78;4.45;;;;;;;9.68;100.00;101002.34;5068242;28;20024;-84
2023/03/19 02:12:22;;;;;;;5.38;4.45;;;;;;;9.69;100.00;101000.53;5068621;28;20029;-84
2023/03/19 02:14:48;;;;;;;5.97;4.82;;;;;;;9.67;100.00;101002.44;5068730;28;20047;-84
2023/03/19 02:17:13;;;;;;;6.22;4.50;;;;;;;9.68;100.00;100991.81;5069162;28;20518;-83
2023/03/19 02:19:48;;;;;;;5.28;4.53;;;;;;;9.67;100.00;100999.81;5051502;28;20039;-83
2023/03/19 02:22:18;;;;;;;5.53;4.45;;;;;;;9.65;100.00;100997.28;5069435;28;20509;-84
2023/03/19 02:24:58;;;;;;;7.55;4.93;;;;;;;9.68;100.00;101001.50;5044527;28;20029;-84
2023/03/19 02:27:23;;;;;;;7.32;4.88;;;;;;;9.65;100.00;101004.31;5067800;28;21126;-84
2023/03/19 02:29:49;;;;;;;5.65;4.60;;;;;;;9.67;100.00;101007.69;5069366;28;20032;-84
2023/03/19 02:32:14;;;;;;;7.20;4.90;;;;;;;9.68;100.00;101012.00;5068813;28;20058;-84
2023/03/19 02:34:41;;;;;;;7.13;4.72;;;;;;;9.68;100.00;101006.75;5070353;28;20400;-84
2023/03/19 02:37:13;;;;;;;8.77;4.82;;;;;;;9.65;100.00;100997.28;5069999;28;20025;-84
2023/03/19 02:39:42;;;;;;;6.05;5.03;;;;;;;9.64;100.00;101005.28;5051105;28;20173;-84
2023/03/19 02:42:10;;;;;;;7.10;5.20;;;;;;;9.65;100.00;101001.69;5069528;28;20024;-85
2023/03/19 02:44:36;;;;;;;7.20;4.88;;;;;;;9.64;100.00;101010.53;5055197;28;20020;-84
2023/03/19 02:47:02;;;;;;;5.93;5.32;;;;;;;9.63;100.00;101012.31;5069846;28;20039;-84
2023/03/19 02:49:28;;;;;;;5.88;5.18;;;;;;;9.64;100.00;101015.78;5069806;28;20096;-84
2023/03/19 02:51:54;;;;;;;7.47;5.90;;;;;;;9.67;100.00;101015.56;5069071;28;20170;-84
2023/03/19 02:54:19;;;;;;;7.40;4.80;;;;;;;9.68;100.00;101009.38;5067048;28;20029;-84
2023/03/19 02:56:45;;;;;;;6.07;5.43;;;;;;;9.65;100.00;101006.97;5069397;28;20040;-85
2023/03/19 02:59:10;;;;;;;7.22;5.55;;;;;;;9.65;100.00;101005.16;5069374;28;20024;-82
2023/03/19 03:01:36;;;;;;;7.88;5.60;;;;;;;9.65;100.00;101013.06;5056517;28;20118;-81
2023/03/19 03:04:01;;;;;;;6.53;5.18;;;;;;;9.66;100.00;101014.72;5068807;28;20028;-84
2023/03/19 03:06:27;;;;;;;7.38;5.40;;;;;;;9.66;100.00;101020.00;5069254;28;20036;-84
2023/03/19 03:08:53;;;;;;;8.18;6.20;;;;;;;9.65;100.00;101020.09;5070291;28;20354;-84
2023/03/19 03:11:18;;;;;;;8.02;5.65;;;;;;;9.65;100.00;101018.31;5070577;28;20039;-84
2023/03/19 03:13:44;;;;;;;6.65;5.95;;;;;;;9.69;100.00;101018.94;5070342;28;20031;-84
2023/03/19 03:16:10;;;;;;;7.68;6.15;;;;;;;9.64;100.00;101010.53;5068121;28;20037;-84
2023/03/19 03:18:35;;;;;;;8.13;5.80;;;;;;;9.64;100.00;101011.38;5064248;28;20028;-84
2023/03/19 03:21:02;;;;;;;7.38;5.65;;;;;;;9.62;100.00;101012.41;5069801;28;20044;-84
2023/03/19 03:23:27;;;;;;;7.05;6.30;;;;;;;9.64;100.00;101016.63;5067950;28;20044;-84
2023/03/19 03:25:53;;;;;;;8.85;5.90;;;;;;;9.63;100.00;101014.94;5070392;28;20039;-84
2023/03/19 03:28:19;;;;;;;8.02;6.22;;;;;;;9.59;100.00;101013.44;5069228;28;20029;-82
2023/03/19 03:30:45;;;;;;;6.40;5.55;;;;;;;9.59;100.00;101017.84;5069164;28;20485;-84
2023/03/19 03:33:11;;;;;;;7.38;5.82;;;;;;;9.58;100.00;101014.38;5069015;28;20012;-84
2023/03/19 03:35:37;;;;;;;7.40;5.75;;;;;;;9.55;100.00;101016.38;5054601;28;20033;-84
2023/03/19 03:38:03;;;;;;;7.45;6.28;;;;;;;9.51;100.00;101007.84;5031828;28;20025;-84
2023/03/19 03:40:29;;;;;;;8.07;5.95;;;;;;;9.46;100.00;101012.59;5049561;28;20028;-84
2023/03/19 03:42:56;;;;;;;7.63;6.20;;;;;;;9.41;100.00;101017.31;5048671;28;20029;-83
2023/03/19 03:45:21;;;;;;;7.82;5.80;;;;;;;9.41;100.00;101028.66;5049781;28;20477;-84
2023/03/19 03:47:49;;;;;;;6.85;5.93;;;;;;;9.36;100.00;101028.13;5068184;28;20060;-84
2023/03/19 03:50:15;;;;;;;7.72;6.57;;;;;;;9.30;100.00;101022.44;5049358;28;20029;-84
2023/03/19 03:52:41;;;;;;;7.50;6.47;;;;;;;9.25;100.00;101025.38;5054156;28;20066;-84
2023/03/19 03:55:08;;;;;;;13.23;6.32;;;;;;;9.24;100.00;101034.19;5049136;28;20081;-84
2023/03/19 03:57:33;;;;;;;7.93;6.50;;;;;;;9.19;100.00;101038.03;5049829;28;20317;-84
2023/03/19 03:59:59;;;;;;;7.85;6.47;;;;;;;9.19;100.00;101033.63;5066608;28;20028;-84
2023/03/19 04:02:24;;;;;;;8.50;7.15;;;;;;;9.15;100.00;101034.75;5066976;28;20028;-84
2023/03/19 04:04:50;;;;;;;7.32;6.63;;;;;;;9.10;100.00;101039.47;5066327;28;20032;-84
2023/03/19 04:07:16;;;;;;;8.55;6.50;;;;;;;9.06;100.00;101035.34;5066916;28;20032;-84
2023/03/19 04:09:41;;;;;;;8.93;7.03;;;;;;;9.03;100.00;101035.56;5056287;28;20037;-84
2023/03/19 04:12:07;;;;;;;9.57;7.05;;;;;;;9.02;100.00;101033.88;5047611;28;20021;-84
2023/03/19 04:14:32;;;;;;;9.13;6.47;;;;;;;8.93;100.00;101032.69;5048262;28;20197;-84
2023/03/19 04:16:58;;;;;;;8.00;6.80;;;;;;;8.95;100.00;101029.97;5060217;28;20104;-84
2023/03/19 04:19:23;;;;;;;7.43;6.30;;;;;;;8.88;100.00;101031.31;5063235;28;20528;-84
2023/03/19 04:21:49;;;;;;;17.60;7.32;;;;;;;8.91;100.00;101031.09;5050985;28;20025;-84
2023/03/19 04:24:14;;;;;;;8.30;7.50;;;;;;;8.86;100.00;101038.44;5067947;28;20020;-84
2023/03/19 04:26:39;;;;;;;10.07;7.18;;;;;;;8.85;100.00;101036.75;5059232;28;20025;-84
2023/03/19 04:29:07;;;;;;;9.15;7.10;;;;;;;8.78;100.00;101031.88;5067355;28;20051;-84
2023/03/19 04:31:32;;;;;;;8.05;7.25;;;;;;;8.75;100.00;101032.06;5065314;28;20029;-84
2023/03/19 04:33:57;;;;;;;8.20;6.70;;;;;;;8.72;100.00;101036.66;5065899;28;20477;-83
2023/03/19 04:36:23;;;;;;;9.32;6.95;;;;;;;8.67;100.00;101029.09;5068390;28;20028;-83
2023/03/19 04:38:49;;;;;;;10.85;7.35;;;;;;;8.63;100.00;101029.38;5051523;28;20025;-84
2023/03/19 04:41:17;;;;;;;8.88;7.65;;;;;;;8.60;100.00;101027.78;5069015;28;20048;-83
2023/03/19 04:43:43;;;;;;;8.88;7.15;;;;;;;8.60;100.00;101040.06;5054867;28;20288;-83
2023/03/19 04:46:15;;;;;;;9.80;7.28;;;;;;;8.60;100.00;101040.91;5068996;28;20548;-84
2023/03/19 04:48:41;;;;;;;;;;;;;;;8.69;100.00;101039.47;5072109;28;20033;-84
2023/03/19 04:51:08;;;;;;;11.73;8.30;;;;;;;8.57;100.00;101041.09;5071742;28;20426;-84
2023/03/19 04:53:34;;;;;;;8.60;7.70;;;;;;;8.53;100.00;101042.22;5071538;28;20054;-83
2023/03/19 04:56:00;;;;;;;10.15;7.90;;;;;;;8.44;100.00;101045.44;5071199;28;20059;-83
2023/03/19 04:58:26;;;;;;;10.80;8.10;;;;;;;8.45;100.00;101049.75;5071348;28;20099;-83
2023/03/19 05:00:54;;;;;;;10.77;8.10;;;;;;;8.40;100.00;101046.53;5053821;28;20115;-83
2023/03/19 05:03:20;;;;;;;10.40;8.23;;;;;;;8.41;100.00;101049.09;5052282;28;20099;-83
2023/03/19 05:05:46;;;;;;;11.40;8.30;;;;;;;8.39;100.00;101056.19;5068676;28;20024;-84
2023/03/19 05:08:14;;;;;;;8.80;7.90;;;;;;;8.34;100.00;101062.66;5071984;28;20040;-84
2023/03/19 05:10:40;;;;;;;9.48;8.48;;;;;;;8.35;100.00;101053.84;5073048;28;20021;-84
2023/03/19 05:13:06;;;;;;;9.63;7.82;;;;;;;8.30;100.00;101066.34;5070388;28;20703;-84
2023/03/19 05:15:32;;;;;;;9.98;8.95;;;;;;;8.27;100.00;101067.38;5071498;28;20032;-84
2023/03/19 05:17:57;;;;;;;9.88;8.85;;;;;;;8.30;100.00;101071.59;5050582;28;20025;-84
2023/03/19 05:20:24;;;;;;;9.82;8.82;;;;;;;8.28;100.00;101065.59;5057415;28;20058;-84
2023/03/19 05:22:54;;;;;;;12.05;9.25;;;;;;;8.24;100.00;101077.22;5070876;28;20020;-84
2023/03/19 05:25:19;;;;;;;11.00;8.77;;;;;;;8.21;100.00;101077.41;5069904;28;20028;-84
2023/03/19 05:27:45;;;;;;;11.20;9.50;;;;;;;8.16;100.00;101075.91;5069629;28;20032;-84
2023/03/19 05:30:11;;;;;;;14.35;9.90;;;;;;;8.10;100.00;101080.69;5071411;28;20043;-84
2023/03/19 05:32:37;;;;;;;10.55;9.38;;;;;;;8.06;100.00;101074.78;5069027;28;20052;-84
2023/03/19 05:35:04;;;;;;;13.95;9.23;;;;;;;7.98;100.00;101074.38;5058126;28;20135;-84
2023/03/19 05:37:29;;;;;;;10.65;9.55;;;;;;;7.97;100.00;101085.78;5065858;28;20120;-84
2023/03/19 05:39:55;;;;;;;10.20;9.20;;;;;;;7.92;100.00;101085.22;5071277;28;20426;-84
2023/03/19 05:42:20;;;;;;;10.80;9.00;;;;;;;7.93;100.00;101094.75;5071209;28;20390;-84
2023/03/19 05:44:46;;;;;;;10.70;9.30;;;;;;;7.89;100.00;101088.03;5072280;28;20046;-84
2023/03/19 05:47:14;;;;;;;13.02;9.60;;;;;;;7.86;100.00;101088.19;5069644;28;20107;-83
2023/03/19 05:49:40;;;;;;;10.75;9.68;;;;;;;7.84;100.00;101090.91;5068520;28;20032;-84
2023/03/19 05:52:06;;;;;;;10.75;9.43;;;;;;;7.84;100.00;101095.31;5050186;28;20041;-84
2023/03/19 05:54:34;;;;;;;11.50;10.02;;;;;;;7.76;100.00;101097.53;5054240;28;20076;-84
2023/03/19 05:57:00;;;;;;;12.60;9.93;;;;;;;7.77;100.00;101096.59;5069660;28;20076;-85
2023/03/19 05:59:25;;;;;;;11.65;9.88;;;;;;;7.75;100.00;101095.84;5070245;28;20071;-85
2023/03/19 06:01:50;;;;;;;13.02;11.00;;;;;;;7.77;100.00;101094.00;5071344;28;20488;-85
2023/03/19 06:04:20;;;;;;;11.88;10.45;;;;;;;7.74;100.00;101099.41;5069933;28;20477;-83
2023/03/19 06:06:46;;;;;;;12.48;10.80;;;;;;;7.77;100.00;101104.47;5054119;28;20540;-84
2023/03/19 06:09:12;;;;;;;11.93;10.45;;;;;;;7.73;100.00;101109.03;5068928;28;20570;-84
2023/03/19 06:11:39;;;;;;;12.27;11.05;;;;;;;7.77;100.00;101112.31;5055196;28;20065;-84
2023/03/19 06:14:05;;;;;;;13.00;10.35;;;;;;;7.78;100.00;101112.22;5064034;28;20154;-84
2023/03/19 06:16:31;;;;;;;11.88;10.77;;;;;;;7.81;100.00;101119.06;5070728;28;20042;-84
2023/03/19 06:18:58;;;;;;;12.15;10.95;;;;;;;7.84;100.00;101121.50;5053775;28;20465;-84
2023/03/19 06:21:28;;;;;;;12.60;11.10;;;;;;;7.88;100.00;101120.38;5072301;28;20503;-84
2023/03/19 06:23:54;;;;;;;14.32;11.40;;;;;;;7.94;100.00;101121.81;5069073;28;20027;-82
2023/03/19 06:26:19;;;;;;;14.30;11.93;;;;;;;7.97;100.00;101126.88;5069377;28;20032;-84
2023/03/19 06:28:45;;;;;;;12.90;11.57;;;;;;;7.97;100.00;101127.72;5062970;28;20078;-84
2023/03/19 06:31:10;;;;;;;13.65;12.00;;;;;;;7.97;100.00;101130.31;5068696;28;20054;-84
2023/03/19 06:33:36;;;;;;;14.50;12.13;;;;;;;8.00;100.00;101139.78;5051684;28;20021;-84
2023/03/19 06:36:01;;;;;;;14.68;12.32;;;;;;;8.02;100.00;101140.56;5069731;28;20093;-83
2023/03/19 06:38:27;;;;;;;14.88;13.00;;;;;;;8.04;100.00;101133.47;5067859;28;20031;-85
2023/03/19 06:40:52;;;;;;;16.08;13.07;;;;;;;8.03;100.00;101143.09;5069354;28;20177;-84
2023/03/19 06:43:17;;;;;;;15.40;13.02;;;;;;;8.06;100.00;101136.84;5070308;28;20048;-83
2023/03/19 06:45:44;;;;;;;15.57;13.20;;;;;;;8.07;100.00;101143.75;5069718;28;20028;-84
2023/03/19 06:48:09;;;;;;;18.35;13.85;;;;;;;8.07;100.00;101141.97;5074760;28;20028;-85
2023/03/19 06:50:35;;;;;;;18.80;14.60;;;;;;;8.11;100.00;101150.50;5051345;28;20058;-84
2023/03/19 06:53:01;;;;;;;15.35;13.68;;;;;;;8.13;100.00;101153.88;5068705;28;20067;-84
2023/03/19 06:55:26;;;;;;;15.65;13.98;;;;;;;8.14;100.00;101156.41;5068673;28;20048;-84
2023/03/19 06:57:52;;;;;;;19.08;14.55;;;;;;;8.19;100.00;101153.50;5068050;28;20029;-84
2023/03/19 07:00:18;;;;;;;18.55;15.10;;;;;;;8.23;100.00;101154.16;5049302;28;20021;-84
2023/03/19 07:02:44;;;;;;;17.30;15.18;;;;;;;8.29;100.00;101151.19;5068963;28;20481;-84
2023/03/19 07:05:09;;;;;;;19.40;16.42;;;;;;;8.39;100.00;101155.81;5069315;28;20077;-84
2023/03/19 07:07:37;;;;;;;17.67;15.82;;;;;;;8.44;100.00;101155.56;5067233;28;20032;-84
2023/03/19 07:10:03;;;;;;;20.50;16.45;;;;;;;8.55;100.00;101163.63;5069435;28;20032;-84
2023/03/19 07:12:29;;;;;;;17.10;15.40;;;;;;;8.65;100.00;101163.91;5067192;28;20024;-84
2023/03/19 07:14:55;;;;;;;22.83;17.17;;;;;;;8.81;100.00;101169.91;5065259;28;20395;-84
2023/03/19 07:17:21;;;;;;;19.67;16.35;;;;;;;8.92;100.00;101175.34;5064049;28;20388;-84
2023/03/19 07:19:47;;;;;;;17.67;15.88;;;;;;;9.07;100.00;101168.28;5067397;28;20035;-84
2023/03/19 07:22:12;;;;;;;19.10;15.70;;;;;;;9.23;100.00;101170.81;5054080;28;20103;-84
2023/03/19 07:24:38;;;;;;;18.55;15.30;;;;;;;9.32;100.00;101173.69;5048512;28;20017;-84
2023/03/19 07:27:03;;;;;;;17.45;15.65;;;;;;;9.51;100.00;101173.34;5037775;28;20030;-84
2023/03/19 07:29:28;;;;;;;16.48;14.75;;;;;;;9.64;100.00;101178.66;5067201;28;20032;-85
2023/03/19 07:31:54;;;;;;;16.45;14.75;;;;;;;9.78;100.00;101181.22;5068271;28;20059;-84
2023/03/19 07:34:20;;;;;;;15.90;14.30;;;;;;;9.93;100.00;101179.38;5068935;28;20052;-85
2023/03/19 07:36:46;;;;;;;17.20;15.45;;;;;;;10.09;100.00;101184.47;5070243;28;20039;-85
2023/03/19 07:39:11;;;;;;;16.25;14.60;;;;;;;10.22;100.00;101188.00;5069631;28;20063;-83
2023/03/19 07:41:36;;;;;;;17.58;12.30;;;;;;;10.36;100.00;101193.16;5068518;28;20024;-83
2023/03/19 07:44:02;;;;;;;14.43;12.43;;;;;;;10.49;100.00;101188.78;5051648;28;20048;-83
2023/03/19 07:46:27;;;;;;;17.67;13.60;;;;;;;10.69;100.00;101190.03;5051490;28;20031;-83
2023/03/19 07:48:53;;;;;;;15.05;11.05;;;;;;;10.77;100.00;101198.22;5067829;28;20035;-83
2023/03/19 07:51:18;;;;;;;13.40;9.95;;;;;;;10.82;100.00;101198.78;5051570;28;20039;-85
2023/03/19 07:53:43;;;;;;;15.05;9.95;;;;;;;10.94;100.00;101199.72;5067944;28;20040;-84
2023/03/19 07:56:10;;;;;;;14.43;9.25;;;;;;;10.93;100.00;101205.91;5056117;28;20040;-85
2023/03/19 07:58:35;;;;;;;13.48;8.77;;;;;;;10.95;100.00;101204.03;5047824;28;20295;-85
2023/03/19 08:01:01;;;;;;;17.08;8.80;;;;;;;10.96;100.00;101211.81;5029044;28;20029;-85
2023/03/19 08:03:28;;;;;;;11.20;8.20;;;;;;;10.91;100.00;101206.03;5046317;28;20104;-84
2023/03/19 08:05:53;;;;;;;14.88;8.23;;;;;;;10.84;100.00;101209.19;5048289;28;20099;-85
2023/03/19 08:08:18;;;;;;;16.15;8.27;;;;;;;10.78;100.00;101214.84;5048230;28;20497;-84
2023/03/19 08:10:44;;;;;;;12.85;7.57;;;;;;;10.74;100.00;101214.22;5050790;28;20024;-84
2023/03/19 08:13:10;;;;;;;16.27;8.52;;;;;;;10.74;100.00;101214.22;5049021;28;20025;-84
2023/03/19 08:15:36;;;;;;;14.63;8.55;;;;;;;10.74;100.00;101221.28;5033988;28;20585;-83
2023/03/19 08:18:03;;;;;;;16.13;8.93;;;;;;;10.67;100.00;101221.72;5053999;28;20037;-83
2023/03/19 08:20:29;;;;;;;12.55;8.88;;;;;;;10.75;100.00;101215.91;5052388;28;20528;-80
2023/03/19 08:22:56;;;;;;;15.23;8.75;;;;;;;10.74;100.00;101218.66;5051893;28;20053;-83
2023/03/19 08:25:22;;;;;;;15.65;8.95;;;;;;;10.67;100.00;101224.34;5051175;28;20119;-84
2023/03/19 08:27:48;;;;;;;13.82;9.35;;;;;;;10.71;100.00;101232.88;5047563;28;20028;-82
2023/03/19 08:30:14;;;;;;;15.13;9.27;;;;;;;10.89;100.00;101229.00;5042900;28;20041;-82
2023/03/19 08:32:39;;;;;;;13.63;8.57;;;;;;;11.02;100.00;101228.97;5051314;28;20017;-83
2023/03/19 08:35:06;;;;;;;15.68;9.48;;;;;;;11.19;100.00;101231.25;5051592;28;20021;-83
2023/03/19 08:37:32;;;;;;;14.57;9.30;;;;;;;11.40;100.00;101233.34;5034642;28;20033;-83
2023/03/19 08:39:58;;;;;;;15.48;8.25;;;;;;;11.46;100.00;101232.88;5052412;28;20029;-83
2023/03/19 08:42:23;;;;;;;15.93;7.75;;;;;;;11.71;100.00;101237.25;5052762;28;20040;-83
2023/03/19 08:44:49;;;;;;;17.40;6.90;;;;;;;11.69;100.00;101234.72;5051348;28;20028;-81
2023/03/19 08:47:15;;;;;;;18.83;7.30;;;;;;;11.67;100.00;101241.91;5034478;28;20733;-81
2023/03/19 08:49:41;;;;;;;15.45;6.47;;;;;;;11.59;100.00;101241.59;5032665;28;20474;-81
2023/03/19 08:52:07;;;;;;;13.43;6.75;;;;;;;11.67;100.00;101259.53;5014304;28;20121;-80
2023/03/19 08:54:32;;;;;;;17.58;6.20;;;;;;;11.73;99.62;101259.91;5032397;28;20040;-80
2023/03/19 08:56:59;;;;;;;14.10;6.88;;;;;;;11.67;99.48;101257.72;5031172;28;20049;-83
2023/03/19 08:59:26;;;;;;;11.68;6.55;;;;;;;11.63;100.00;101258.91;5032086;28;20502;-83
2023/03/19 09:01:54;;;;;;;18.58;6.40;;;;;;;11.65;99.22;101262.25;5032857;28;20033;-83
2023/03/19 09:04:21;;;;;;;18.67;7.30;;;;;;;11.64;99.88;101260.59;5032854;28;20498;-83
2023/03/19 09:06:50;;;;;;;18.35;6.47;;;;;;;11.57;99.95;101262.78;5030202;28;20048;-82
2023/03/19 09:09:16;;;;;;;17.35;5.97;;;;;;;11.51;99.02;101263.22;5030961;28;20025;-82
2023/03/19 09:11:41;;;;;;;17.23;5.80;;;;;;;11.48;98.88;101260.81;5032060;28;20461;-82
2023/03/19 09:14:07;;;;;;;16.88;6.07;;;;;;;11.44;99.25;101269.88;5030973;28;20022;-82
2023/03/19 09:16:32;;;;;;;13.50;6.43;;;;;;;11.42;99.11;101270.94;5044703;28;20443;-82
2023/03/19 09:18:58;;;;;;;16.58;6.30;;;;;;;11.46;99.58;101275.06;5051337;28;20438;-82
2023/03/19 09:21:23;;;;;;;16.08;6.05;;;;;;;11.63;98.81;101265.97;5050793;28;20036;-82
2023/03/19 09:23:48;;;;;;;19.60;7.30;;;;;;;11.90;99.32;101271.91;5050203;28;20051;-82
2023/03/19 09:26:14;;;;;;;18.48;7.03;;;;;;;12.26;97.11;101270.16;5035161;28;20029;-82
2023/03/19 09:28:39;;;;;;;20.00;7.45;;;;;;;12.55;94.52;101272.31;5030870;28;20100;-83
2023/03/19 09:31:08;;;;;;;17.38;6.60;;;;;;;12.91;92.81;101278.38;5029829;28;20477;-83
2023/03/19 09:33:34;;;;;;;17.80;6.50;;;;;;;13.11;91.61;101280.31;5040818;28;20481;-82
2023/03/19 09:36:00;;;;;;;17.48;6.20;;;;;;;13.33;90.86;101286.63;5049020;28;20027;-83
2023/03/19 09:38:27;;;;;;;15.38;6.43;;;;;;;13.49;89.38;101287.06;5050887;28;20462;-83
2023/03/19 09:41:15;;;;;;;14.35;5.95;;;;;;;13.52;90.59;101292.13;5050567;28;20466;-82
2023/03/19 09:44:11;;;;;;;16.35;7.00;;;;;;;13.62;89.20;101295.75;5035472;28;20021;-82
2023/03/19 09:46:50;;;;;;;16.77;6.35;;;;;;;13.78;88.12;101290.06;5030784;28;20108;-83
2023/03/19 09:49:22;;;;;;;15.80;5.75;;;;;;;14.20;84.60;101296.31;5030001;28;20034;-82
2023/03/19 09:51:53;;;;;;;18.17;6.13;;;;;;;14.77;82.67;101289.81;5032077;28;20035;-83
2023/03/19 09:54:24;;;;;;;15.77;5.65;;;;;;;15.56;79.77;101285.59;5031841;28;20034;-83
2023/03/19 09:56:49;;;;;;;17.52;5.30;;;;;;;16.26;75.94;101281.13;5049272;28;20091;-83
2023/03/19 09:59:15;;;;;;;13.50;4.82;;;;;;;16.39;72.19;101286.16;5055511;28;20036;-83
2023/03/19 10:01:47;;;;;;;13.40;4.93;;;;;;;16.09;72.72;101295.13;5050771;28;20016;-83
2023/03/19 10:04:38;;;;;;;10.48;4.65;;;;;;;15.90;77.63;101288.78;5051894;28;20036;-83
2023/03/19 10:07:18;;;;;;;16.23;4.95;;;;;;;15.71;78.45;101290.56;5050714;28;20079;-83
2023/03/19 10:10:03;;;;;;;14.60;4.20;;;;;;;15.32;77.68;101295.72;5050220;28;20021;-83
2023/03/19 10:12:38;;;;;;;14.13;4.60;;;;;;;15.29;76.16;101290.69;5050193;28;20029;-83
2023/03/19 10:15:19;;;;;;;14.30;4.70;;;;;;;15.59;77.24;101292.47;5051368;28;20021;-83
2023/03/19 10:18:10;;;;;;;15.38;4.40;;;;;;;16.26;76.65;101289.94;5041829;28;20032;-83
2023/03/19 10:20:59;;;;;;;11.27;4.20;;;;;;;15.80;77.64;101292.41;5071596;28;20020;-84
2023/03/19 10:23:32;;;;;;;13.35;4.65;;;;;;;15.47;75.84;101299.66;5070858;28;20024;-83
2023/03/19 10:26:01;;;;;;;12.13;4.10;;;;;;;15.20;77.24;101296.75;5071645;28;20095;-83
2023/03/19 10:28:28;;;;;;;11.20;4.32;;;;;;;14.98;77.44;101297.75;5070966;28;20028;-83
2023/03/19 10:30:56;;;;;;;13.82;4.20;;;;;;;14.78;78.43;101299.44;5052941;28;20108;-83
2023/03/19 10:33:36;;;;;;;15.10;4.32;;;;;;;14.64;80.21;101297.97;5060626;28;20043;-83
2023/03/19 10:36:09;;;;;;;13.10;4.43;;;;;;;14.34;81.38;101296.00;5049070;28;20075;-82
2023/03/19 10:38:39;;;;;;;13.05;4.43;;;;;;;14.18;81.28;101298.25;5049128;28;20025;-83
2023/03/19 10:41:07;;;;;;;14.48;4.38;;;;;;;14.02;81.66;101303.13;5050054;28;20025;-83
2023/03/19 10:43:35;;;;;;;17.17;4.88;;;;;;;13.83;83.46;101313.50;5048670;28;20436;-82
2023/03/19 10:46:01;;;;;;;17.05;5.15;;;;;;;13.73;83.84;101314.22;5049422;28;20031;-83
2023/03/19 10:48:28;;;;;;;17.30;4.93;;;;;;;13.75;85.49;101316.75;5053659;28;20028;-84
2023/03/19 10:51:00;;;;;;;13.38;4.70;;;;;;;14.09;84.69;101318.38;5048080;28;20129;-83
2023/03/19 10:53:28;;;;;;;13.98;5.05;;;;;;;14.15;83.21;101319.66;5047276;28;20393;-82
2023/03/19 10:56:05;;;;;;;11.45;4.50;;;;;;;14.31;83.67;101320.09;5049600;28;20118;-83
2023/03/19 10:58:34;;;;;;;18.70;5.43;;;;;;;14.25;81.79;101315.31;5047601;28;20048;-82
2023/03/19 11:01:11;;;;;;;13.80;4.22;;;;;;;14.28;82.90;101315.06;5031628;28;20449;-82
2023/03/19 11:03:56;;;;;;;11.15;4.38;;;;;;;14.30;83.27;101317.56;5049221;28;20151;-83
2023/03/19 11:06:35;;;;;;;12.50;4.05;;;;;;;14.18;82.31;101319.41;5053981;28;20047;-83
2023/03/19 11:09:22;;;;;;;9.52;4.20;;;;;;;14.13;81.78;101321.59;5049496;28;20029;-81
2023/03/19 11:11:52;;;;;;;12.77;4.90;;;;;;;14.03;81.22;101320.69;5050036;28;20037;-80
2023/03/19 11:14:22;;;;;;;12.55;5.18;;;;;;;13.87;81.69;101325.50;5048257;28;20028;-83
2023/03/19 11:16:58;;;;;;;12.90;5.38;;;;;;;13.85;83.31;101332.72;5066032;28;20036;-83
2023/03/19 11:19:26;;;;;;;11.90;6.60;;;;;;;13.75;84.96;101333.47;5069302;28;20088;-82